Flight Track Log - Related Links

Times and Time Zones

All times are in EDT time to prevent confusion due to time zone crossing. See the CTL17 flight status page for this flight to view local times or setup timezone preferences in your user account.

Time Position Orientation Groundspeed Altitude Reporting Facility
EDT Latitude Longitude Course Direction KTS MPH feet Rate Location/Type
Wed 03:52:56 PM 42.6653 -83.4069 68° East 121 139 1,300  Level Cleveland Center
Wed 03:54:00 PM 42.7027 -83.4031 North  Level FlightAware Approximate
Wed 03:54:21 PM 42.6833 -83.3456 North 141 162 2,600  Level Cleveland Center
Wed 03:55:17 PM 42.7186 -83.3528 351° North 146 168 3,000 429 Climbing Cleveland Center
Wed 03:57:00 PM 42.7693 -83.3974 14° North  Level Estimated
Wed 04:04:00 PM 43.0000 -83.4767 321° Northwest  Level FlightAware Approximate
Wed 04:05:00 PM 43.0274 -83.5069 321° Northwest  Level FlightAware Approximate
Wed 04:06:00 PM 43.0547 -83.5371 321° Northwest  Level FlightAware Approximate
Wed 04:07:00 PM 43.0821 -83.5674 321° Northwest  Level FlightAware Approximate
Wed 04:08:00 PM 43.1095 -83.5977 321° Northwest  Level FlightAware Approximate
Wed 04:09:00 PM 43.1368 -83.6280 321° Northwest  Level FlightAware Approximate
Wed 04:10:00 PM 43.1642 -83.6583 321° Northwest  Level FlightAware Approximate
Wed 04:11:00 PM 43.1915 -83.6887 321° Northwest  Level FlightAware Approximate
Wed 04:12:00 PM 43.2188 -83.7192 318° Northwest  Level FlightAware Approximate
Wed 04:13:00 PM 43.2451 -83.7513 318° Northwest  Level FlightAware Approximate
Wed 04:14:00 PM 43.2714 -83.7834 318° Northwest  Level FlightAware Approximate
Wed 04:15:00 PM 43.2976 -83.8155 318° Northwest  Level FlightAware Approximate
Wed 04:16:00 PM 43.3239 -83.8476 318° Northwest  Level FlightAware Approximate
Wed 04:17:00 PM 43.3502 -83.8798 318° Northwest  Level FlightAware Approximate
Wed 04:18:00 PM 43.3773 -83.9106 324° Northwest  Level FlightAware Approximate
Wed 04:19:00 PM 43.4058 -83.9390 324° Northwest  Level FlightAware Approximate
Wed 04:20:00 PM 43.4342 -83.9675 324° Northwest  Level FlightAware Approximate
Wed 04:21:00 PM 43.4627 -83.9959 324° Northwest  Level FlightAware Approximate
Wed 04:22:00 PM 43.4911 -84.0245 324° Northwest  Level FlightAware Approximate
Wed 04:23:00 PM 43.5137 -84.0608 305° West  Level FlightAware Approximate
Wed 04:24:00 PM 43.5167 -84.0667 305° West  Level FlightAware Approximate
Wed 04:25:00 PM 43.5329 -84.0796 305° West  Level Estimated

Login

Don't have an account? Register now (free) for customized features, flight alerts, and more!